Meyersville, Texas
Current Conditions -  °F | °C
As of 6:51 AM on Tuesday 21 Oct 2014 (Local Time) from KVCT Reporting Station
Haze Haze  
Wind Chill: 62°   Ceiling: Unl
Heat Index: 62°   Visibility: 5mi
Dew Point: 60°   Wind: 6mph
Humidity: 93%   Direction: 10°N
Pressure: 30.01"   Gusts: NA
Location:  28.93°N, 97.31°W
Report Text: KVCT 211151Z AUTO 01005KT 5SM BR CLR 17/16 A3001 RMK AO2 SLP160 T01670156 10189 20167 53007
Loading
Personal Weather Stations






























Interactive Weather Map New forecast layout! Learn more

10-Day Weather Forecast

Advertisements
Track Severe Weather on mobile